EGHE/ISC METAR and TAF weather

Enter ICAO airport designator
Station Type Date Time Source
EGHE METAR 2019/08/19 08:20 UTC NOAA

EGHE 190820Z 27012KT 9999 FEW012 17/13 Q1016


Station Type Date Time Source
EGHE Decoded METAR 2019/08/19 08:20 UTC NOAA

Station name not available
Aug 19, 2019 - 04:20 AM EDT / 2019.08.19 0820 UTC
Wind: from the W (270 degrees) at 14 MPH (12 KT):0
Visibility: greater than 7 mile(s):0
Sky conditions: mostly clear
Temperature: 62 F (17 C)
Dew Point: 55 F (13 C)
Relative Humidity: 77%
Pressure (altimeter): 30.00 in. Hg (1016 hPa)
ob: EGHE 190820Z 27012KT 9999 FEW012 17/13 Q1016
cycle: 8

Station Type Date Time Source
EGHE TAF UTC NOAA

Error!

Example: see airport list